createdAt,value
2019-03-30T00:01:08.285Z,8.58
2019-03-30T00:03:40.172Z,8.48
2019-03-30T00:06:12.029Z,8.55
2019-03-30T00:08:43.861Z,8.51
2019-03-30T00:11:15.849Z,8.42
2019-03-30T00:13:47.702Z,8.52
2019-03-30T00:16:20.977Z,8.62
2019-03-30T00:18:54.566Z,8.62
2019-03-30T00:21:26.484Z,8.44
2019-03-30T00:23:59.456Z,8.43
2019-03-30T00:26:33.421Z,8.39
2019-03-30T00:29:06.040Z,8.40
2019-03-30T00:31:40.483Z,8.44
2019-03-30T00:34:12.876Z,8.51
2019-03-30T00:36:47.538Z,8.53
2019-03-30T00:39:19.492Z,8.47
2019-03-30T00:41:52.918Z,8.44
2019-03-30T00:44:25.923Z,8.35
2019-03-30T00:46:58.210Z,8.41
2019-03-30T00:49:31.140Z,8.27
2019-03-30T00:52:03.369Z,8.18
2019-03-30T00:54:35.513Z,8.12
2019-03-30T00:57:07.430Z,8.10
2019-03-30T00:59:40.191Z,8.25
2019-03-30T01:02:12.049Z,8.27
2019-03-30T01:04:44.013Z,8.34
2019-03-30T01:07:17.700Z,8.38
2019-03-30T01:09:49.473Z,8.27
2019-03-30T01:12:22.205Z,8.32
2019-03-30T01:14:54.239Z,8.34
2019-03-30T01:17:26.159Z,8.46
2019-03-30T01:20:03.193Z,8.38
2019-03-30T01:22:33.912Z,8.30
2019-03-30T01:25:07.494Z,8.43
2019-03-30T01:27:39.212Z,8.46
2019-03-30T01:30:22.605Z,8.39
2019-03-30T01:32:45.102Z,8.29
2019-03-30T01:35:17.094Z,8.20
2019-03-30T01:37:49.198Z,8.20
2019-03-30T01:40:21.022Z,8.36
2019-03-30T01:42:53.870Z,8.09
2019-03-30T01:45:25.729Z,8.14
2019-03-30T01:47:57.637Z,8.37
2019-03-30T01:50:29.492Z,8.44
2019-03-30T01:53:02.755Z,8.49
2019-03-30T01:55:34.515Z,8.59
2019-03-30T01:58:06.325Z,8.41
2019-03-30T02:00:38.567Z,8.30
2019-03-30T02:03:10.795Z,8.40
2019-03-30T02:05:42.692Z,8.47
2019-03-30T02:08:14.520Z,8.55
2019-03-30T02:10:46.681Z,8.52
2019-03-30T02:13:18.481Z,8.53
2019-03-30T02:15:50.722Z,8.64
2019-03-30T02:18:22.818Z,8.59
2019-03-30T02:20:54.571Z,8.51
2019-03-30T02:23:26.391Z,8.47
2019-03-30T02:25:58.272Z,8.40
2019-03-30T02:28:31.178Z,8.47
2019-03-30T02:31:02.930Z,8.42
2019-03-30T02:33:34.872Z,8.43
2019-03-30T02:36:07.351Z,8.45
2019-03-30T02:38:39.089Z,8.43
2019-03-30T02:41:10.841Z,8.43
2019-03-30T02:43:42.546Z,8.39
2019-03-30T02:46:14.476Z,8.41
2019-03-30T02:48:46.720Z,8.41
2019-03-30T02:51:18.638Z,8.32
2019-03-30T02:53:50.434Z,8.36
2019-03-30T02:56:22.686Z,8.39
2019-03-30T02:58:54.591Z,8.41
2019-03-30T03:01:27.283Z,8.36
2019-03-30T03:03:59.107Z,8.34
2019-03-30T03:06:30.956Z,8.25
2019-03-30T03:09:03.937Z,8.11
2019-03-30T03:11:35.744Z,7.96
2019-03-30T03:14:07.525Z,8.02
2019-03-30T03:16:39.391Z,8.18
2019-03-30T03:19:11.188Z,8.21
2019-03-30T03:21:43.238Z,8.29
2019-03-30T03:24:15.132Z,8.33
2019-03-30T03:26:46.824Z,8.24
2019-03-30T03:29:18.923Z,8.30
2019-03-30T03:31:51.604Z,8.16
2019-03-30T03:34:23.396Z,7.76
2019-03-30T03:36:55.150Z,7.66
2019-03-30T03:39:26.929Z,7.61
2019-03-30T03:41:58.698Z,7.75
2019-03-30T03:44:30.459Z,7.85
2019-03-30T03:47:02.582Z,7.84
2019-03-30T03:49:34.273Z,7.73
2019-03-30T03:52:08.713Z,7.75
2019-03-30T03:54:41.633Z,7.86
2019-03-30T03:57:16.749Z,7.73
2019-03-30T03:59:51.951Z,7.94
2019-03-30T04:02:26.030Z,7.93
2019-03-30T04:05:00.506Z,7.91
2019-03-30T04:07:34.575Z,7.77
2019-03-30T04:10:07.139Z,7.67
2019-03-30T04:12:41.621Z,7.66
2019-03-30T04:15:24.278Z,7.82
2019-03-30T04:17:57.019Z,7.96
2019-03-30T04:20:28.766Z,7.89
2019-03-30T04:23:00.432Z,7.96
2019-03-30T04:25:32.231Z,7.85
2019-03-30T04:28:03.980Z,7.87
2019-03-30T04:30:35.753Z,7.93
2019-03-30T04:33:07.435Z,7.58
2019-03-30T04:35:39.292Z,7.74
2019-03-30T04:38:14.214Z,7.59
2019-03-30T04:40:44.791Z,7.60
2019-03-30T04:43:17.563Z,7.69
2019-03-30T04:45:49.361Z,7.67
2019-03-30T04:48:21.146Z,7.74
2019-03-30T04:50:52.977Z,7.61
2019-03-30T04:53:24.773Z,7.57
2019-03-30T04:55:56.468Z,7.65
2019-03-30T04:58:28.305Z,7.62
2019-03-30T05:01:00.069Z,7.69
2019-03-30T05:03:31.925Z,7.84
2019-03-30T05:06:03.600Z,7.61
2019-03-30T05:08:35.485Z,7.71
2019-03-30T05:11:07.440Z,7.73
2019-03-30T05:13:39.878Z,7.59
2019-03-30T05:16:12.694Z,7.49
2019-03-30T05:18:44.496Z,7.48
2019-03-30T05:21:16.282Z,7.65
2019-03-30T05:23:48.003Z,7.75
2019-03-30T05:26:21.877Z,7.94
2019-03-30T05:28:53.637Z,8.04
2019-03-30T05:31:29.291Z,7.93
2019-03-30T05:34:01.187Z,7.82
2019-03-30T05:36:33.110Z,7.79
2019-03-30T05:39:10.150Z,7.86
2019-03-30T05:41:42.066Z,7.84
2019-03-30T05:44:14.932Z,7.82
2019-03-30T05:46:48.188Z,8.12
2019-03-30T05:49:19.921Z,8.14
2019-03-30T05:51:52.117Z,8.08
2019-03-30T05:54:23.833Z,8.08
2019-03-30T05:56:55.591Z,8.34
2019-03-30T05:59:27.460Z,8.45
2019-03-30T06:01:59.549Z,8.51
2019-03-30T06:04:31.305Z,8.55
2019-03-30T06:07:03.039Z,8.48
2019-03-30T06:09:35.056Z,8.54
2019-03-30T06:12:07.276Z,8.58
2019-03-30T06:14:39.088Z,8.70
2019-03-30T06:17:10.931Z,8.59
2019-03-30T06:19:42.809Z,8.60
2019-03-30T06:22:14.670Z,8.42
2019-03-30T06:24:47.087Z,8.72
2019-03-30T06:27:18.951Z,8.84
2019-03-30T06:30:15.634Z,8.99
2019-03-30T06:32:47.616Z,9.13
2019-03-30T06:35:19.469Z,9.22
2019-03-30T06:37:51.287Z,9.25
2019-03-30T06:40:23.135Z,9.39
2019-03-30T06:42:57.336Z,9.50
2019-03-30T06:45:29.120Z,9.54
2019-03-30T06:48:00.917Z,9.48
2019-03-30T06:50:32.637Z,9.48
2019-03-30T06:53:04.482Z,9.26
2019-03-30T06:55:36.252Z,9.37
2019-03-30T06:58:08.497Z,9.61
2019-03-30T07:00:41.006Z,9.78
2019-03-30T07:03:12.812Z,9.97
2019-03-30T07:05:44.996Z,9.94
2019-03-30T07:10:14.643Z,10.29
2019-03-30T07:12:49.931Z,10.34
2019-03-30T07:15:21.743Z,10.37
2019-03-30T07:17:55.525Z,10.57
2019-03-30T07:20:32.607Z,11.22
2019-03-30T07:23:11.881Z,11.70
2019-03-30T07:25:37.975Z,12.36
2019-03-30T07:28:09.784Z,12.71
2019-03-30T07:30:41.589Z,12.88
2019-03-30T07:33:13.345Z,13.02
2019-03-30T07:35:45.162Z,12.96
2019-03-30T07:38:16.963Z,13.02
2019-03-30T07:40:48.790Z,13.25
2019-03-30T07:43:20.886Z,13.69
2019-03-30T07:45:52.766Z,13.58
2019-03-30T07:48:24.660Z,14.26
2019-03-30T07:50:57.506Z,14.40
2019-03-30T07:53:43.589Z,14.22
2019-03-30T07:56:08.627Z,14.34
2019-03-30T07:58:37.589Z,14.36
2019-03-30T08:01:09.389Z,14.05
2019-03-30T08:03:41.333Z,13.89
2019-03-30T08:06:16.444Z,14.03
2019-03-30T08:08:48.693Z,13.44
2019-03-30T08:11:21.095Z,13.20
2019-03-30T08:13:53.281Z,13.22
2019-03-30T08:16:25.223Z,13.55
2019-03-30T08:18:57.336Z,14.28
2019-03-30T08:21:29.217Z,13.58
2019-03-30T08:24:01.045Z,13.44
2019-03-30T08:26:35.647Z,13.35
2019-03-30T08:29:07.003Z,13.44
2019-03-30T08:31:39.415Z,13.24
2019-03-30T08:34:11.462Z,13.15
2019-03-30T08:36:43.320Z,13.34
2019-03-30T08:39:15.167Z,13.38
2019-03-30T08:41:46.934Z,13.34
2019-03-30T08:44:18.770Z,13.28
2019-03-30T08:46:51.053Z,13.61
2019-03-30T08:49:22.882Z,13.69
2019-03-30T08:51:54.793Z,13.87
2019-03-30T08:54:26.654Z,13.69
2019-03-30T08:56:58.689Z,13.71
2019-03-30T08:59:30.809Z,14.06
2019-03-30T09:02:02.715Z,13.80
2019-03-30T09:04:36.372Z,14.06
2019-03-30T09:07:08.472Z,13.84
2019-03-30T09:09:40.281Z,14.01
2019-03-30T09:12:13.253Z,14.43
2019-03-30T09:14:45.040Z,14.43
2019-03-30T09:17:16.971Z,14.33
2019-03-30T09:19:49.207Z,14.23
2019-03-30T09:22:21.532Z,14.44
2019-03-30T09:24:53.767Z,14.31
2019-03-30T09:27:29.140Z,14.16
2019-03-30T09:30:01.583Z,14.23
2019-03-30T09:32:34.072Z,14.63
2019-03-30T09:35:06.344Z,14.80
2019-03-30T09:37:38.271Z,14.78
2019-03-30T09:40:10.517Z,14.88
2019-03-30T09:42:42.380Z,15.03
2019-03-30T09:45:17.392Z,15.04
2019-03-30T09:47:49.214Z,15.16
2019-03-30T09:50:21.178Z,15.20
2019-03-30T09:52:52.995Z,15.04
2019-03-30T09:55:27.178Z,15.35
2019-03-30T09:57:58.702Z,15.66
2019-03-30T10:00:30.619Z,15.59
2019-03-30T10:03:09.877Z,15.59
2019-03-30T10:05:42.654Z,15.58
2019-03-30T10:08:14.685Z,15.74
2019-03-30T10:10:46.599Z,15.70
2019-03-30T10:13:18.577Z,15.67
2019-03-30T10:15:50.566Z,15.63
2019-03-30T10:18:22.411Z,15.81
2019-03-30T10:20:54.412Z,15.93
2019-03-30T10:23:26.261Z,15.97
2019-03-30T10:25:58.856Z,15.61
2019-03-30T10:28:30.830Z,15.82
2019-03-30T10:31:02.954Z,15.94
2019-03-30T10:33:35.595Z,15.47
2019-03-30T10:36:07.386Z,16.09
2019-03-30T10:38:39.428Z,15.96
2019-03-30T10:41:11.334Z,16.13
2019-03-30T10:43:43.133Z,16.41
2019-03-30T10:46:15.007Z,16.31
2019-03-30T10:48:47.119Z,16.40
2019-03-30T10:51:18.962Z,16.60
2019-03-30T10:53:50.838Z,16.70
2019-03-30T10:56:22.734Z,16.66
2019-03-30T10:58:54.594Z,16.77
2019-03-30T11:01:26.487Z,16.42
2019-03-30T11:03:58.476Z,16.35
2019-03-30T11:06:30.731Z,16.31
2019-03-30T11:09:02.814Z,16.13
2019-03-30T11:11:36.761Z,16.33
2019-03-30T11:14:08.680Z,16.55
2019-03-30T11:16:42.013Z,16.24
2019-03-30T11:19:13.724Z,16.39
2019-03-30T11:21:45.692Z,16.35
2019-03-30T11:24:17.597Z,16.40
2019-03-30T11:26:49.424Z,16.54
2019-03-30T11:29:21.196Z,16.23
2019-03-30T11:31:52.982Z,16.20
2019-03-30T11:34:25.344Z,16.27
2019-03-30T11:36:57.353Z,16.30
2019-03-30T11:39:29.210Z,16.35
2019-03-30T11:42:00.992Z,16.34
2019-03-30T11:44:32.984Z,16.49
2019-03-30T11:47:04.856Z,16.53
2019-03-30T11:49:36.667Z,16.55
2019-03-30T11:52:08.363Z,16.48
2019-03-30T11:54:40.223Z,16.66
2019-03-30T11:57:12.945Z,16.52
2019-03-30T11:59:44.811Z,16.73
2019-03-30T12:02:27.396Z,16.76
2019-03-30T12:04:51.283Z,16.91
2019-03-30T12:07:23.445Z,17.02
2019-03-30T12:09:55.715Z,16.78
2019-03-30T12:12:27.525Z,16.69
2019-03-30T12:14:59.710Z,16.62
2019-03-30T12:17:31.447Z,16.58
2019-03-30T12:22:55.455Z,16.62
2019-03-30T12:25:35.603Z,16.66
2019-03-30T12:28:02.122Z,16.76
2019-03-30T12:30:34.123Z,16.94
2019-03-30T12:33:07.057Z,16.96
2019-03-30T12:35:38.994Z,17.03
2019-03-30T12:38:10.980Z,17.03
2019-03-30T12:40:43.499Z,17.03
2019-03-30T12:43:15.355Z,17.09
2019-03-30T12:45:48.241Z,17.13
2019-03-30T12:48:20.507Z,17.04
2019-03-30T12:50:52.510Z,17.00
2019-03-30T12:53:24.500Z,17.09
2019-03-30T12:55:56.277Z,17.25
2019-03-30T12:58:28.369Z,16.99
2019-03-30T13:01:00.539Z,16.91
2019-03-30T13:03:32.498Z,16.86
2019-03-30T13:06:04.699Z,16.99
2019-03-30T13:08:36.965Z,17.25
2019-03-30T13:11:09.648Z,17.37
2019-03-30T13:13:42.073Z,17.51
2019-03-30T13:16:14.179Z,17.41
2019-03-30T13:18:49.071Z,17.40
2019-03-30T13:21:22.546Z,17.23
2019-03-30T13:23:56.835Z,17.13
2019-03-30T13:26:30.357Z,17.33
2019-03-30T13:29:02.167Z,17.55
2019-03-30T13:31:37.180Z,17.64
2019-03-30T13:34:09.171Z,17.39
2019-03-30T13:36:44.387Z,17.28
2019-03-30T13:39:17.525Z,17.35
2019-03-30T13:41:49.269Z,17.44
2019-03-30T13:44:24.148Z,17.32
2019-03-30T13:46:56.045Z,17.21
2019-03-30T13:49:29.809Z,17.42
2019-03-30T13:52:01.686Z,17.49
2019-03-30T13:54:33.629Z,17.58
2019-03-30T13:57:06.012Z,17.46
2019-03-30T13:59:38.587Z,17.35
2019-03-30T14:02:10.456Z,17.19
2019-03-30T14:04:42.242Z,17.27
2019-03-30T14:07:15.670Z,17.28
2019-03-30T14:09:47.468Z,17.47
2019-03-30T14:12:19.596Z,17.57
2019-03-30T14:14:51.399Z,17.64
2019-03-30T14:17:23.171Z,17.33
2019-03-30T14:19:54.957Z,17.45
2019-03-30T14:22:26.694Z,17.61
2019-03-30T14:24:58.462Z,17.67
2019-03-30T14:27:30.218Z,17.67
2019-03-30T14:30:02.003Z,17.50
2019-03-30T14:32:33.730Z,17.39
2019-03-30T14:35:05.559Z,17.14
2019-03-30T14:37:38.413Z,17.15
2019-03-30T14:40:10.607Z,17.18
2019-03-30T14:42:42.834Z,17.04
2019-03-30T14:45:14.730Z,16.96
2019-03-30T14:47:48.331Z,16.93
2019-03-30T14:50:20.769Z,16.80
2019-03-30T14:52:52.565Z,16.78
2019-03-30T14:55:24.697Z,16.84
2019-03-30T14:57:56.443Z,17.02
2019-03-30T15:00:28.646Z,17.20
2019-03-30T15:03:00.489Z,17.20
2019-03-30T15:05:32.653Z,17.21
2019-03-30T15:08:04.477Z,17.13
2019-03-30T15:10:36.178Z,17.02
2019-03-30T15:13:07.993Z,17.07
2019-03-30T15:15:40.062Z,17.21
2019-03-30T15:18:12.139Z,17.03
2019-03-30T15:20:44.111Z,16.99
2019-03-30T15:23:15.837Z,16.87
2019-03-30T15:25:47.682Z,16.95
2019-03-30T15:28:21.147Z,16.88
2019-03-30T15:30:52.989Z,16.88
2019-03-30T15:33:24.733Z,16.89
2019-03-30T15:35:57.681Z,16.70
2019-03-30T15:38:30.348Z,16.65
2019-03-30T15:41:02.224Z,16.58
2019-03-30T15:43:38.461Z,16.60
2019-03-30T15:46:07.576Z,16.55
2019-03-30T15:48:39.392Z,16.39
2019-03-30T15:51:11.448Z,16.34
2019-03-30T15:53:43.206Z,16.38
2019-03-30T15:56:15.583Z,16.37
2019-03-30T15:58:50.125Z,16.09
2019-03-30T16:01:22.499Z,15.96
2019-03-30T16:03:56.898Z,16.01
2019-03-30T16:06:28.788Z,15.93
2019-03-30T16:09:00.999Z,15.76
2019-03-30T16:11:35.249Z,15.77
2019-03-30T16:14:08.472Z,15.74
2019-03-30T16:16:40.318Z,15.66
2019-03-30T16:19:12.071Z,15.61
2019-03-30T16:21:44.318Z,15.59
2019-03-30T16:24:16.100Z,15.46
2019-03-30T16:26:47.913Z,15.28
2019-03-30T16:29:20.583Z,15.36
2019-03-30T16:31:53.320Z,15.38
2019-03-30T16:34:26.908Z,15.27
2019-03-30T16:36:59.351Z,15.32
2019-03-30T16:39:34.798Z,15.12
2019-03-30T16:42:06.134Z,15.09
2019-03-30T16:44:38.874Z,15.17
2019-03-30T16:47:10.866Z,15.10
2019-03-30T16:49:43.059Z,15.03
2019-03-30T16:52:15.045Z,15.01
2019-03-30T16:54:47.132Z,14.93
2019-03-30T16:57:19.436Z,14.86
2019-03-30T16:59:51.251Z,14.91
2019-03-30T17:02:23.012Z,14.95
2019-03-30T17:04:57.666Z,14.96
2019-03-30T17:07:29.838Z,14.95
2019-03-30T17:10:01.665Z,14.91
2019-03-30T17:12:33.430Z,14.85
2019-03-30T17:15:05.636Z,14.86
2019-03-30T17:17:37.407Z,14.70
2019-03-30T17:20:10.311Z,14.57
2019-03-30T17:22:43.457Z,14.50
2019-03-30T17:25:15.343Z,14.35
2019-03-30T17:27:58.264Z,14.39
2019-03-30T17:30:20.748Z,14.14
2019-03-30T17:32:53.248Z,13.99
2019-03-30T17:35:25.207Z,14.04
2019-03-30T17:37:57.379Z,14.01
2019-03-30T17:40:29.189Z,13.92
2019-03-30T17:43:00.953Z,13.94
2019-03-30T17:45:35.308Z,13.88
2019-03-30T17:48:07.170Z,13.56
2019-03-30T17:50:38.954Z,13.49
2019-03-30T17:53:13.426Z,13.59
2019-03-30T17:55:45.247Z,13.54
2019-03-30T17:58:18.129Z,13.37
2019-03-30T18:00:50.086Z,13.36
2019-03-30T18:03:22.078Z,13.29
2019-03-30T18:05:53.851Z,13.06
2019-03-30T18:08:26.279Z,13.05
2019-03-30T18:10:58.471Z,12.95
2019-03-30T18:13:30.273Z,12.98
2019-03-30T18:16:02.112Z,12.89
2019-03-30T18:18:34.434Z,12.79
2019-03-30T18:21:06.367Z,12.73
2019-03-30T18:23:40.963Z,12.67
2019-03-30T18:26:12.931Z,12.75
2019-03-30T18:28:45.667Z,12.49
2019-03-30T18:31:18.105Z,12.45
2019-03-30T18:33:50.399Z,12.35
2019-03-30T18:36:22.619Z,12.22
2019-03-30T18:39:08.864Z,12.28
2019-03-30T18:41:30.363Z,12.18
2019-03-30T18:44:03.721Z,12.03
2019-03-30T18:46:35.602Z,12.04
2019-03-30T18:49:07.445Z,11.92
2019-03-30T18:51:41.722Z,11.87
2019-03-30T18:54:13.701Z,11.82
2019-03-30T18:56:45.529Z,11.79
2019-03-30T18:59:17.373Z,11.77
2019-03-30T19:01:49.150Z,11.84
2019-03-30T19:04:21.023Z,11.64
2019-03-30T19:06:55.255Z,11.48
2019-03-30T19:09:26.827Z,11.43
2019-03-30T19:11:58.664Z,11.27
2019-03-30T19:14:30.582Z,11.13
2019-03-30T19:17:03.580Z,11.18
2019-03-30T19:19:35.492Z,11.08
2019-03-30T19:22:08.413Z,11.19
2019-03-30T19:24:40.664Z,11.18
2019-03-30T19:27:12.456Z,11.08
2019-03-30T19:29:44.697Z,10.99
2019-03-30T19:32:16.488Z,10.82
2019-03-30T19:34:48.614Z,10.94
2019-03-30T19:37:20.606Z,10.91
2019-03-30T19:39:53.094Z,10.90
2019-03-30T19:42:25.215Z,10.61
2019-03-30T19:44:57.511Z,10.78
2019-03-30T19:47:30.892Z,10.79
2019-03-30T19:50:03.202Z,10.68
2019-03-30T19:52:39.985Z,10.76
2019-03-30T19:55:09.833Z,10.60
2019-03-30T19:57:41.918Z,10.71
2019-03-30T20:00:14.460Z,10.64
2019-03-30T20:02:46.445Z,10.41
2019-03-30T20:05:18.440Z,10.31
2019-03-30T20:07:50.314Z,10.35
2019-03-30T20:10:22.150Z,10.30
2019-03-30T20:12:53.933Z,10.20
2019-03-30T20:15:26.241Z,10.13
2019-03-30T20:17:58.746Z,10.09
2019-03-30T20:20:30.509Z,10.04
2019-03-30T20:23:02.304Z,10.06
2019-03-30T20:25:34.172Z,10.06
2019-03-30T20:28:05.880Z,9.79
2019-03-30T20:30:37.686Z,9.83
2019-03-30T20:33:10.179Z,9.73
2019-03-30T20:35:41.917Z,9.61
2019-03-30T20:38:13.758Z,9.55
2019-03-30T20:40:45.566Z,9.64
2019-03-30T20:43:17.286Z,9.59
2019-03-30T20:45:49.028Z,9.46
2019-03-30T20:48:20.736Z,9.38
2019-03-30T20:50:52.680Z,9.17
2019-03-30T20:53:24.601Z,9.29
2019-03-30T20:55:56.438Z,9.22
2019-03-30T20:58:28.325Z,9.12
2019-03-30T21:01:00.542Z,9.13
2019-03-30T21:03:32.632Z,8.99
2019-03-30T21:06:04.760Z,9.04
2019-03-30T21:08:36.630Z,8.85
2019-03-30T21:11:08.423Z,8.84
2019-03-30T21:13:40.206Z,8.79
2019-03-30T21:16:12.414Z,8.82
2019-03-30T21:18:44.263Z,8.70
2019-03-30T21:21:16.176Z,8.78
2019-03-30T21:23:48.123Z,8.69
2019-03-30T21:26:19.951Z,8.50
2019-03-30T21:28:52.116Z,8.58
2019-03-30T21:31:23.943Z,8.54
2019-03-30T21:33:56.809Z,8.42
2019-03-30T21:36:28.691Z,8.44
2019-03-30T21:39:00.893Z,8.56
2019-03-30T21:41:34.286Z,8.40
2019-03-30T21:44:06.199Z,8.50
2019-03-30T21:46:38.013Z,8.36
2019-03-30T21:49:09.837Z,8.16
2019-03-30T21:51:44.050Z,8.24
2019-03-30T21:54:15.849Z,8.05
2019-03-30T21:56:49.040Z,7.96
2019-03-30T21:59:20.903Z,7.91
2019-03-30T22:01:52.692Z,8.02
2019-03-30T22:04:24.827Z,7.94
2019-03-30T22:06:56.721Z,7.98
2019-03-30T22:09:29.891Z,8.00
2019-03-30T22:12:03.396Z,7.99
2019-03-30T22:14:36.308Z,8.03
2019-03-30T22:17:08.204Z,8.12
2019-03-30T22:19:40.023Z,8.17
2019-03-30T22:22:12.026Z,8.32
2019-03-30T22:24:44.057Z,8.17
2019-03-30T22:27:16.173Z,8.30
2019-03-30T22:29:48.313Z,8.27
2019-03-30T22:32:20.570Z,8.15
2019-03-30T22:34:52.485Z,8.29
2019-03-30T22:37:24.832Z,8.28
2019-03-30T22:39:56.682Z,8.27
2019-03-30T22:42:28.849Z,8.20
2019-03-30T22:45:00.685Z,8.29
2019-03-30T22:47:32.547Z,8.35
2019-03-30T22:50:04.538Z,8.53
2019-03-30T22:52:36.413Z,8.58
2019-03-30T22:55:08.370Z,8.58
2019-03-30T22:57:40.151Z,8.61
2019-03-30T23:00:22.216Z,8.72
2019-03-30T23:03:01.358Z,8.44
2019-03-30T23:05:33.444Z,8.42
2019-03-30T23:08:05.672Z,8.62
2019-03-30T23:10:37.529Z,8.50
2019-03-30T23:13:09.986Z,8.38
2019-03-30T23:15:42.304Z,8.31
2019-03-30T23:18:14.275Z,8.43
2019-03-30T23:20:47.097Z,8.54
2019-03-30T23:23:19.053Z,8.67
2019-03-30T23:25:51.953Z,8.68
2019-03-30T23:28:23.790Z,8.45
2019-03-30T23:30:55.594Z,8.65
2019-03-30T23:33:27.722Z,8.59
2019-03-30T23:35:59.805Z,8.81
2019-03-30T23:38:32.057Z,8.77
2019-03-30T23:41:03.931Z,8.75
2019-03-30T23:43:36.717Z,8.76
2019-03-30T23:48:19.749Z,8.63
2019-03-30T23:50:51.517Z,8.70
2019-03-30T23:53:23.280Z,8.72
2019-03-30T23:55:55.015Z,8.68
2019-03-30T23:58:27.083Z,8.82
